Time;durP1;ratioP1;P1;durP2;ratioP2;P2;SDS_P1;SDS_P2;PMS_P1;PMS_P2;Temp;Humidity;BMP_temperature;BMP_pressure;BME280_temperature;BME280_humidity;BME280_pressure;Samples;Min_cycle;Max_cycle;Signal;HPM_P1;HPM_P2
2022/01/03 00:03:54;;;;;;;3.47;3.17;;;;;;;11.58;75.57;99534.82;2959599;80;20980;-75
2022/01/03 00:07:57;;;;;;;5.22;3.33;;;;;;;11.68;75.55;99536.59;2958866;79;21019;-75
2022/01/03 00:12:01;;;;;;;4.78;3.10;;;;;;;11.66;75.53;99531.41;2961215;80;21052;-75
2022/01/03 00:16:02;;;;;;;5.25;4.08;;;;;;;11.67;75.56;99533.59;2961854;80;20995;-75
2022/01/03 00:20:07;;;;;;;4.08;2.95;;;;;;;11.61;75.72;99531.54;2961480;80;21078;-75
2022/01/03 00:24:12;;;;;;;6.90;3.55;;;;;;;11.53;76.07;99531.78;2960289;80;21039;-75
2022/01/03 00:28:37;;;;;;;4.22;3.30;;;;;;;11.50;76.59;99534.75;2958667;80;20952;-75
2022/01/03 00:32:43;;;;;;;5.53;3.37;;;;;;;11.52;76.56;99539.94;2958625;80;20992;-74
2022/01/03 00:36:46;;;;;;;;;;;;;;;11.62;76.63;99542.54;2961458;80;21066;-74
2022/01/03 00:40:49;;;;;;;2.90;2.55;;;;;;;11.67;76.30;99546.91;2958750;80;20124;-75
2022/01/03 00:44:53;;;;;;;5.75;3.37;;;;;;;11.70;76.23;99531.95;2960147;80;21023;-75
2022/01/03 00:48:54;;;;;;;4.40;3.35;;;;;;;11.78;76.22;99528.53;2961803;80;21075;-75
2022/01/03 00:52:57;;;;;;;4.03;2.65;;;;;;;11.82;75.95;99521.42;2961810;80;21070;-75
2022/01/03 00:57:10;;;;;;;3.58;2.98;;;;;;;11.88;75.83;99520.45;2961512;80;21081;-74
2022/01/03 01:01:15;;;;;;;3.98;3.45;;;;;;;11.96;75.54;99513.37;2958077;80;21014;-75
2022/01/03 01:05:20;;;;;;;3.98;2.30;;;;;;;12.05;75.10;99516.13;2961491;80;21012;-74
2022/01/03 01:09:26;;;;;;;2.75;2.15;;;;;;;12.05;74.94;99503.64;2961266;80;21139;-75
2022/01/03 01:13:29;;;;;;;6.30;2.70;;;;;;;12.04;74.78;99502.45;2957477;80;20987;-75
2022/01/03 01:17:33;;;;;;;3.70;2.30;;;;;;;11.94;74.70;99515.84;2960680;80;21662;-75
2022/01/03 01:21:35;;;;;;;2.33;1.45;;;;;;;11.84;75.00;99508.78;2961206;80;20999;-74
2022/01/03 01:29:40;;;;;;;5.33;2.33;;;;;;;11.72;75.09;99490.00;2886843;82;21023;-75
2022/01/03 01:33:44;;;;;;;3.35;2.60;;;;;;;11.73;75.04;99466.87;2907179;82;21038;-75
2022/01/03 01:37:50;;;;;;;2.70;2.35;;;;;;;11.74;75.07;99456.56;2885880;82;21039;-75
2022/01/03 01:41:56;;;;;;;5.72;2.92;;;;;;;11.67;75.24;99451.83;2902768;80;21017;-75
2022/01/03 01:45:59;;;;;;;;;;;;;;;11.69;75.36;99442.36;2905775;82;21049;-75
2022/01/03 01:50:04;;;;;;;6.15;2.45;;;;;;;11.70;75.49;99436.05;2903993;82;20112;-75
2022/01/03 01:54:07;;;;;;;2.27;1.75;;;;;;;11.63;75.63;99435.81;2905712;82;21032;-75
2022/01/03 01:58:18;;;;;;;4.45;2.40;;;;;;;11.55;75.86;99431.25;2905846;80;21126;-75
2022/01/03 02:02:27;;;;;;;3.77;2.92;;;;;;;11.46;75.88;99426.86;2903963;80;21428;-75
2022/01/03 02:06:45;;;;;;;3.20;1.92;;;;;;;11.31;75.98;99421.72;2906199;81;20994;-75
2022/01/03 02:11:07;;;;;;;6.67;2.75;;;;;;;11.19;76.57;99419.78;2873781;83;21035;-75
2022/01/03 02:15:14;;;;;;;5.75;3.55;;;;;;;11.06;77.05;99410.84;2906792;81;21128;-75
2022/01/03 02:19:16;;;;;;;5.28;3.02;;;;;;;11.02;77.51;99400.16;2874934;83;21004;-75
2022/01/03 02:23:18;;;;;;;4.30;2.92;;;;;;;10.97;78.04;99397.42;2904877;82;21026;-75
2022/01/03 02:27:21;;;;;;;3.65;3.25;;;;;;;10.97;78.33;99396.61;2876461;81;21019;-75
2022/01/03 02:31:24;;;;;;;6.97;3.58;;;;;;;10.99;78.37;99386.64;2876878;82;21031;-75
2022/01/03 02:35:26;;;;;;;4.03;3.40;;;;;;;11.05;78.77;99388.69;2877116;82;21042;-76
2022/01/03 02:39:29;;;;;;;3.30;2.60;;;;;;;11.10;80.02;99401.55;2857198;83;21455;-77
2022/01/03 02:43:30;;;;;;;5.62;3.58;;;;;;;11.14;81.34;99390.94;2906648;82;21040;-77
2022/01/03 02:47:33;;;;;;;7.42;3.30;;;;;;;11.12;82.25;99388.45;2875255;83;20955;-77
2022/01/03 02:51:34;;;;;;;4.10;2.75;;;;;;;11.14;83.36;99388.28;2875399;83;21058;-74
2022/01/03 02:55:36;;;;;;;5.33;2.55;;;;;;;11.19;84.20;99387.33;2875585;83;21058;-76
2022/01/03 02:59:37;;;;;;;6.53;2.72;;;;;;;11.21;84.51;99382.71;2875717;83;20956;-76
2022/01/03 03:03:40;;;;;;;4.42;2.72;;;;;;;11.23;85.05;99387.39;2875233;83;21012;-76
2022/01/03 03:07:43;;;;;;;3.60;2.87;;;;;;;11.28;85.31;99374.45;2876210;82;21007;-78
2022/01/03 03:11:44;;;;;;;3.30;2.90;;;;;;;11.36;84.77;99375.02;2877229;82;21031;-77
2022/01/03 03:15:48;;;;;;;4.12;3.27;;;;;;;11.40;84.78;99360.40;2877228;82;21436;-77
2022/01/03 03:19:57;;;;;;;3.67;3.15;;;;;;;11.46;84.42;99352.30;2877921;82;21030;-77
2022/01/03 03:24:01;;;;;;;3.52;2.85;;;;;;;11.45;84.61;99350.63;2878056;82;21042;-77
2022/01/03 03:28:08;;;;;;;3.95;2.30;;;;;;;11.46;84.13;99344.30;2876594;83;21113;-76
2022/01/03 03:32:11;;;;;;;2.98;2.42;;;;;;;11.45;83.90;99335.98;2876684;83;21066;-78
2022/01/03 03:36:13;;;;;;;7.22;3.60;;;;;;;11.44;83.68;99340.97;2876821;83;21011;-77
2022/01/03 03:40:14;;;;;;;5.62;1.90;;;;;;;11.38;83.73;99328.25;2956505;80;21007;-76
2022/01/03 03:44:16;;;;;;;5.28;2.10;;;;;;;11.29;83.73;99329.53;2915311;81;21010;-76
2022/01/03 03:48:20;;;;;;;2.58;2.35;;;;;;;11.31;83.37;99316.08;2956768;80;21014;-76
2022/01/03 03:52:21;;;;;;;2.27;1.22;;;;;;;11.34;83.51;99309.59;2915375;81;20991;-75
2022/01/03 03:56:23;;;;;;;1.92;1.37;;;;;;;11.31;82.78;99279.28;2956652;80;20995;-76
2022/01/03 04:00:25;;;;;;;2.02;0.50;;;;;;;11.37;81.34;99275.98;2915244;81;21030;-76
2022/01/03 04:04:28;;;;;;;1.95;0.50;;;;;;;11.46;79.54;99253.77;2956646;80;21045;-71
2022/01/03 04:08:29;;;;;;;1.90;0.50;;;;;;;11.56;79.20;99258.47;2914594;81;21015;-71
2022/01/03 04:12:31;;;;;;;2.00;0.70;;;;;;;11.63;78.84;99256.53;2956215;80;20972;-71
2022/01/03 04:16:34;;;;;;;2.25;0.95;;;;;;;11.63;79.30;99272.52;2914778;81;21002;-73
2022/01/03 04:20:36;;;;;;;2.37;0.82;;;;;;;11.61;79.19;99277.16;2956876;80;21011;-75
2022/01/03 04:24:39;;;;;;;3.05;0.68;;;;;;;11.53;79.36;99276.10;2915162;81;20944;-73
2022/01/03 04:28:41;;;;;;;0.80;0.57;;;;;;;11.46;79.37;99267.56;2957243;80;21015;-73
2022/01/03 04:32:43;;;;;;;1.60;0.90;;;;;;;11.40;79.11;99273.04;2915589;81;21027;-74
2022/01/03 04:36:44;;;;;;;0.42;0.42;;;;;;;11.44;79.53;99261.08;2957078;80;21046;-76
2022/01/03 04:40:47;;;;;;;0.70;0.40;;;;;;;11.28;80.14;99237.83;2915389;81;21007;-73
2022/01/03 04:44:49;;;;;;;1.40;0.90;;;;;;;11.26;80.93;99259.30;2956986;79;21038;-73
2022/01/03 04:48:51;;;;;;;0.90;0.70;;;;;;;11.18;80.96;99258.40;2915107;81;20980;-74
2022/01/03 04:52:52;;;;;;;0.95;0.60;;;;;;;11.07;81.48;99252.83;2956792;80;20999;-75
2022/01/03 04:56:59;;;;;;;1.85;0.88;;;;;;;10.88;82.21;99246.69;2915246;81;21321;-76
2022/01/03 05:00:59;;;;;;;5.87;0.80;;;;;;;10.78;82.43;99267.20;2955967;80;20968;-76
2022/01/03 05:05:01;;;;;;;0.68;0.47;;;;;;;10.71;82.69;99274.47;2913840;81;21077;-73
2022/01/03 05:09:03;;;;;;;2.10;0.70;;;;;;;10.62;82.99;99283.84;2954837;80;20968;-73
2022/01/03 05:13:05;;;;;;;0.68;0.30;;;;;;;10.50;83.41;99268.61;2914161;81;20972;-73
2022/01/03 05:17:07;;;;;;;3.52;0.45;;;;;;;10.48;83.51;99271.91;2956580;80;21003;-72
2022/01/03 05:21:08;;;;;;;0.78;0.70;;;;;;;10.45;83.71;99276.20;2915160;81;20944;-72
2022/01/03 05:25:11;;;;;;;1.80;0.47;;;;;;;10.44;83.66;99266.05;2956933;80;20979;-72
2022/01/03 05:29:13;;;;;;;0.90;0.50;;;;;;;10.52;83.63;99270.63;2958524;80;20991;-73
2022/01/03 05:33:17;;;;;;;1.45;0.82;;;;;;;10.62;83.13;99274.06;2958790;80;21035;-72
2022/01/03 05:37:19;;;;;;;2.25;1.12;;;;;;;10.68;82.43;99260.63;2958627;80;21000;-72
2022/01/03 05:41:21;;;;;;;0.72;0.45;;;;;;;10.70;82.06;99275.45;2958282;80;21056;-73
2022/01/03 05:45:23;;;;;;;1.98;0.55;;;;;;;10.79;81.87;99272.86;2958710;80;20980;-74
2022/01/03 05:49:25;;;;;;;1.77;0.30;;;;;;;10.82;81.19;99281.90;2958419;79;21050;-73
2022/01/03 05:53:26;;;;;;;1.05;0.72;;;;;;;10.90;81.09;99288.61;2957669;80;21050;-73
2022/01/03 05:57:28;;;;;;;1.17;0.75;;;;;;;10.89;80.75;99282.95;2958799;80;21007;-72
2022/01/03 06:01:30;;;;;;;1.57;1.00;;;;;;;10.87;80.15;99315.52;2958874;79;21466;-73
2022/01/03 06:09:39;;;;;;;3.95;0.98;;;;;;;10.88;79.59;99277.28;2959035;80;21019;-72
2022/01/03 06:13:42;;;;;;;2.40;0.57;;;;;;;10.82;79.15;99277.91;2961461;80;20999;-72
2022/01/03 06:17:44;;;;;;;3.22;1.05;;;;;;;10.73;78.86;99288.11;2961417;80;21030;-73
2022/01/03 06:21:46;;;;;;;2.30;0.50;;;;;;;10.68;79.13;99301.85;2961461;80;21003;-73
2022/01/03 06:25:48;;;;;;;1.50;0.80;;;;;;;10.64;78.73;99286.71;2943063;80;21049;-72
2022/01/03 06:29:51;;;;;;;1.32;0.60;;;;;;;10.72;79.19;99312.56;2875852;83;21107;-73
2022/01/03 06:33:54;;;;;;;1.17;0.70;;;;;;;10.75;79.13;99298.10;2907134;82;21053;-73
2022/01/03 06:37:56;;;;;;;1.25;0.70;;;;;;;10.84;78.21;99287.89;2875826;83;21062;-72
2022/01/03 06:41:58;;;;;;;3.77;1.20;;;;;;;10.93;77.91;99314.09;2907344;82;21077;-73
2022/01/03 06:46:01;;;;;;;3.00;0.88;;;;;;;10.99;77.79;99326.77;2875877;83;21074;-73
2022/01/03 06:50:07;;;;;;;2.10;0.88;;;;;;;10.98;76.65;99307.30;2907112;81;20990;-72
2022/01/03 06:54:14;;;;;;;;;;;;;;;10.97;76.83;99309.61;2906331;82;21015;-72
2022/01/03 06:58:18;;;;;;;2.40;1.22;;;;;;;10.88;76.81;99331.83;2903892;82;20123;-72
2022/01/03 07:02:22;;;;;;;3.83;1.40;;;;;;;10.83;76.99;99332.78;2872123;83;21051;-73
2022/01/03 07:06:27;;;;;;;1.70;0.85;;;;;;;10.77;77.15;99313.41;2872058;83;21145;-72
2022/01/03 07:10:29;;;;;;;1.87;1.65;;;;;;;10.79;77.45;99352.67;2871917;83;21039;-73
2022/01/03 07:22:49;;;;;;;1.60;0.70;;;;;;;10.77;75.96;99308.09;2907521;81;21038;-73
2022/01/03 07:26:53;;;;;;;3.90;1.22;;;;;;;10.82;75.90;99337.77;2873568;81;21082;-73
2022/01/03 07:30:54;;;;;;;4.15;0.62;;;;;;;10.84;75.72;99330.46;2872585;83;21050;-72
2022/01/03 07:34:56;;;;;;;3.05;0.98;;;;;;;10.77;75.05;99344.86;2847775;83;21123;-73
2022/01/03 07:39:00;;;;;;;1.62;0.93;;;;;;;10.83;76.12;99375.34;2869205;83;21065;-72
2022/01/03 07:43:02;;;;;;;2.15;1.02;;;;;;;10.79;76.55;99355.33;2869180;83;21059;-72
2022/01/03 07:47:06;;;;;;;2.15;0.72;;;;;;;10.81;76.02;99365.35;2869196;83;21007;-72
2022/01/03 07:51:07;;;;;;;12.25;2.85;;;;;;;10.80;76.41;99386.26;2869197;83;21007;-72
2022/01/03 07:55:13;;;;;;;4.20;1.98;;;;;;;10.84;75.87;99391.66;2869298;83;21031;-72
2022/01/03 07:59:17;;;;;;;1.70;1.13;;;;;;;10.85;76.64;99404.78;2869381;81;21098;-73
2022/01/03 08:03:22;;;;;;;3.60;1.25;;;;;;;10.84;76.59;99392.98;2869347;83;22173;-72
2022/01/03 08:07:24;;;;;;;4.33;1.57;;;;;;;10.94;75.83;99392.41;2858723;83;21043;-72
2022/01/03 08:11:26;;;;;;;3.02;0.78;;;;;;;11.07;76.24;99402.69;2866658;83;20991;-71
2022/01/03 08:15:28;;;;;;;5.67;1.85;;;;;;;11.12;75.02;99407.08;2868614;83;20987;-72
2022/01/03 08:19:30;;;;;;;1.72;0.90;;;;;;;11.17;77.24;99421.76;2869197;83;21062;-72
2022/01/03 08:23:32;;;;;;;3.75;1.32;;;;;;;11.00;77.24;99414.45;2868957;83;21002;-72
2022/01/03 08:27:33;;;;;;;1.77;1.10;;;;;;;10.92;76.82;99415.67;2871189;82;21035;-73
2022/01/03 08:31:39;;;;;;;4.17;1.12;;;;;;;10.82;77.19;99404.27;2873685;83;20980;-72
2022/01/03 08:35:41;;;;;;;1.60;0.87;;;;;;;10.77;76.90;99413.16;2874173;83;21023;-73
2022/01/03 08:39:42;;;;;;;4.75;1.40;;;;;;;10.81;77.02;99438.51;2874496;83;21045;-73
2022/01/03 08:43:44;;;;;;;2.92;1.57;;;;;;;10.71;77.21;99438.56;2876909;83;21030;-73
2022/01/03 08:47:46;;;;;;;4.65;1.35;;;;;;;10.73;78.08;99459.67;2954392;79;21042;-73
2022/01/03 08:51:48;;;;;;;2.42;0.93;;;;;;;10.81;77.83;99447.82;2872071;83;21032;-73
2022/01/03 08:55:50;;;;;;;2.47;0.85;;;;;;;10.88;77.92;99462.67;2912410;81;20991;-73
2022/01/03 08:59:52;;;;;;;2.98;1.40;;;;;;;11.08;77.39;99480.72;2956210;80;20983;-73
2022/01/03 09:03:54;;;;;;;2.70;1.12;;;;;;;11.05;76.13;99462.39;2922903;81;20938;-72
2022/01/03 09:07:56;;;;;;;7.05;1.37;;;;;;;11.23;77.07;99483.70;2922673;81;21013;-72
2022/01/03 09:11:58;;;;;;;3.10;1.55;;;;;;;11.29;76.07;99485.27;2871383;81;21013;-73
2022/01/03 09:16:04;;;;;;;3.33;1.52;;;;;;;11.10;75.93;99488.05;2925201;81;20982;-72
2022/01/03 09:20:04;;;;;;;4.47;2.08;;;;;;;11.13;76.78;99483.28;2913875;80;21003;-72
2022/01/03 09:32:30;;;;;;;6.58;1.85;;;;;;;11.50;75.13;99486.81;2961609;80;21203;-72
2022/01/03 09:36:33;;;;;;;10.15;2.40;;;;;;;11.49;74.81;99469.16;2915095;80;20999;-72
2022/01/03 09:40:36;;;;;;;5.35;2.45;;;;;;;11.37;74.78;99490.33;2961275;80;20975;-72
2022/01/03 09:44:38;;;;;;;6.97;2.33;;;;;;;11.40;75.16;99498.05;2895631;81;20996;-72
2022/01/03 09:48:44;;;;;;;2.87;1.80;;;;;;;11.34;74.87;99486.16;2961795;79;21062;-72
2022/01/03 09:52:48;;;;;;;6.45;2.55;;;;;;;11.32;74.16;99476.64;2915908;81;21023;-73
2022/01/03 09:56:51;;;;;;;3.90;1.55;;;;;;;11.56;75.21;99493.36;2961461;80;21019;-72
2022/01/03 10:00:54;;;;;;;2.83;1.65;;;;;;;11.53;73.93;99481.17;2915220;81;21094;-72
2022/01/03 10:04:55;;;;;;;2.95;1.70;;;;;;;11.53;74.49;99497.16;2958831;80;20987;-72
2022/01/03 10:08:59;;;;;;;3.98;2.27;;;;;;;11.47;74.56;99504.42;2879541;82;20930;-72
2022/01/03 10:13:00;;;;;;;6.12;2.98;;;;;;;11.44;74.01;99502.08;2887811;81;20988;-72
2022/01/03 10:17:03;;;;;;;4.92;1.20;;;;;;;11.49;72.87;99476.30;2924031;80;21278;-70
2022/01/03 10:21:07;;;;;;;3.87;1.80;;;;;;;11.56;73.20;99504.84;2959821;80;20983;-70
2022/01/03 10:25:20;;;;;;;1.72;1.12;;;;;;;11.67;73.89;99494.96;2937109;80;20953;-70
2022/01/03 10:29:30;;;;;;;3.75;1.82;;;;;;;11.72;73.51;99501.99;2872709;80;21030;-70
2022/01/03 10:33:32;;;;;;;3.10;1.85;;;;;;;11.68;73.39;99488.64;2845934;83;21051;-70
2022/01/03 10:37:37;;;;;;;5.05;2.35;;;;;;;11.70;73.21;99482.19;2869477;83;21426;-70
2022/01/03 10:41:39;;;;;;;6.10;1.80;;;;;;;11.66;71.76;99464.80;2869766;83;20972;-70
2022/01/03 10:45:42;;;;;;;4.17;1.40;;;;;;;11.91;73.14;99486.83;2869077;83;23407;-70
2022/01/03 10:49:46;;;;;;;10.93;2.00;;;;;;;11.90;72.77;99514.00;2965959;80;21086;-74
2022/01/03 10:53:50;;;;;;;4.15;1.90;;;;;;;12.03;73.68;99471.46;2965440;80;21039;-74
2022/01/03 10:57:58;;;;;;;8.88;3.17;;;;;;;12.07;72.55;99482.14;2965419;79;21014;-73
2022/01/03 11:02:07;;;;;;;3.58;1.85;;;;;;;11.99;72.80;99494.41;2964535;80;21011;-72
2022/01/03 11:06:21;;;;;;;3.40;2.00;;;;;;;12.09;73.54;99513.00;2963914;80;20971;-72
2022/01/03 11:14:39;;;;;;;6.58;2.42;;;;;;;12.40;71.54;99493.90;2914629;81;21011;-74
2022/01/03 11:18:47;;;;;;;8.03;2.87;;;;;;;12.27;70.95;99500.13;2913938;81;21014;-73
2022/01/03 11:22:50;;;;;;;3.95;1.87;;;;;;;12.22;71.13;99474.44;2914171;81;21034;-76
2022/01/03 11:26:52;;;;;;;4.45;1.95;;;;;;;12.18;70.69;99501.91;2911563;81;21061;-76
2022/01/03 11:30:54;;;;;;;12.15;2.00;;;;;;;12.10;71.92;99501.34;2823511;82;21064;-75
2022/01/03 11:34:57;;;;;;;6.90;2.37;;;;;;;12.19;72.90;99512.91;2823524;84;21387;-77
2022/01/03 11:39:04;;;;;;;4.90;2.17;;;;;;;12.25;71.44;99488.79;2875401;83;21000;-74
2022/01/03 11:43:07;;;;;;;8.13;2.75;;;;;;;12.33;72.03;99476.83;2865025;83;21038;-75
2022/01/03 11:47:10;;;;;;;3.72;1.95;;;;;;;12.28;71.18;99521.80;2904718;82;21019;-76
2022/01/03 11:51:12;;;;;;;5.08;2.02;;;;;;;12.17;71.80;99533.55;2862167;83;21009;-76
2022/01/03 11:55:16;;;;;;;6.00;2.58;;;;;;;12.08;71.48;99519.33;2923145;80;21009;-74
2022/01/03 12:07:34;;;;;;;5.87;2.47;;;;;;;12.16;71.56;99509.70;2910772;81;21034;-73
2022/01/03 12:11:43;;;;;;;4.40;2.02;;;;;;;12.12;72.29;99516.69;2953377;80;21015;-73
2022/01/03 12:15:45;;;;;;;12.30;2.90;;;;;;;12.10;71.02;99494.68;2951735;80;21039;-73
2022/01/03 12:19:47;;;;;;;8.08;2.65;;;;;;;12.09;72.23;99521.00;2872183;83;20968;-75
2022/01/03 12:23:49;;;;;;;6.65;2.27;;;;;;;11.99;71.27;99501.58;2885112;81;21034;-74
2022/01/03 12:27:56;;;;;;;8.68;1.92;;;;;;;11.97;70.83;99490.20;2957813;80;21019;-74
2022/01/03 12:32:12;;;;;;;6.50;2.22;;;;;;;11.90;70.16;99514.47;2909851;82;21046;-75
2022/01/03 12:36:18;;;;;;;8.15;3.12;;;;;;;11.82;70.73;99499.25;2957565;80;21022;-76
2022/01/03 12:40:38;;;;;;;9.00;2.52;;;;;;;11.71;70.83;99484.34;2959129;80;21328;-72
2022/01/03 12:44:50;;;;;;;5.72;1.98;;;;;;;11.69;72.15;99516.48;2959667;80;21004;-73
2022/01/03 12:48:52;;;;;;;11.25;3.65;;;;;;;11.63;71.37;99508.25;2864951;83;21114;-72
2022/01/03 12:52:54;;;;;;;8.98;2.87;;;;;;;11.67;71.71;99527.75;2866935;83;21320;-72
2022/01/03 12:57:15;;;;;;;5.55;2.25;;;;;;;11.71;71.98;99523.82;2866927;83;21015;-73
2022/01/03 13:01:26;;;;;;;5.75;2.42;;;;;;;11.80;70.84;99522.07;2867798;83;21054;-72
2022/01/03 13:05:27;;;;;;;8.38;2.37;;;;;;;11.82;72.14;99525.89;2863587;83;21020;-71
2022/01/03 13:09:28;;;;;;;6.75;2.70;;;;;;;11.72;71.01;99513.98;2866773;83;21034;-72
2022/01/03 13:13:30;;;;;;;9.38;3.08;;;;;;;11.65;71.49;99527.58;2865497;83;21050;-71
2022/01/03 13:17:31;;;;;;;7.55;2.52;;;;;;;11.58;72.12;99532.16;2867218;83;21384;-72
2022/01/03 13:21:37;;;;;;;5.45;2.95;;;;;;;11.57;71.71;99520.34;2868145;83;21038;-72
2022/01/03 13:25:38;;;;;;;7.17;2.62;;;;;;;11.58;71.48;99521.50;2867022;83;20995;-72
2022/01/03 13:29:49;;;;;;;5.70;2.87;;;;;;;11.55;71.84;99527.65;2941094;80;21229;-72
2022/01/03 13:34:00;;;;;;;8.28;3.37;;;;;;;11.47;70.31;99507.57;2953881;80;21036;-72
2022/01/03 13:38:15;;;;;;;5.60;2.12;;;;;;;11.60;70.83;99528.02;2953660;80;21039;-73
2022/01/03 13:42:26;;;;;;;11.00;3.25;;;;;;;11.61;71.62;99530.21;2947805;80;21007;-72
2022/01/03 13:50:43;;;;;;;9.48;3.90;;;;;;;11.46;70.31;99536.05;2940215;80;20987;-72
2022/01/03 13:54:44;;;;;;;8.93;2.37;;;;;;;11.41;70.88;99525.02;2954968;80;20991;-72
2022/01/03 13:58:46;;;;;;;10.63;3.55;;;;;;;11.31;71.07;99520.23;2954017;80;21038;-74
2022/01/03 14:02:49;;;;;;;7.28;2.75;;;;;;;11.26;70.81;99529.50;2952731;80;21003;-75
2022/01/03 14:07:06;;;;;;;6.33;2.87;;;;;;;11.22;70.11;99532.12;2954326;80;21019;-72
2022/01/03 14:11:15;;;;;;;8.33;3.85;;;;;;;11.26;70.45;99514.02;2953440;80;21050;-75
2022/01/03 14:15:17;;;;;;;11.40;2.52;;;;;;;11.33;69.94;99515.59;2952154;80;20967;-73
2022/01/03 14:19:19;;;;;;;9.13;2.83;;;;;;;11.50;70.23;99521.44;2955615;80;21048;-73
2022/01/03 14:23:22;;;;;;;7.22;4.22;;;;;;;11.61;70.02;99525.70;2955440;80;20995;-73
2022/01/03 14:27:31;;;;;;;7.78;2.75;;;;;;;11.62;69.53;99518.05;2957184;80;21042;-73
2022/01/03 14:31:59;;;;;;;9.70;3.05;;;;;;;11.65;69.03;99507.60;2960276;80;21032;-71
2022/01/03 14:36:11;;;;;;;9.03;3.00;;;;;;;11.61;68.75;99504.39;2961051;80;21013;-74
2022/01/03 14:40:13;;;;;;;8.05;2.83;;;;;;;11.51;68.28;99507.13;2960952;80;21011;-72
2022/01/03 14:44:16;;;;;;;9.30;2.65;;;;;;;11.48;68.10;99506.58;2960985;80;21018;-69
2022/01/03 14:48:23;;;;;;;7.05;2.62;;;;;;;11.47;68.75;99505.77;2933087;80;21035;-69
2022/01/03 14:52:42;;;;;;;6.05;3.12;;;;;;;11.38;68.68;99496.00;2960928;80;21066;-69
2022/01/03 14:56:47;;;;;;;6.17;2.30;;;;;;;11.36;68.44;99497.50;2960878;80;21107;-69
2022/01/03 15:00:50;;;;;;;6.33;2.83;;;;;;;11.25;68.11;99500.36;2960762;80;21499;-69
2022/01/03 15:04:53;;;;;;;8.80;2.70;;;;;;;11.13;68.92;99491.27;2960995;80;20967;-69
2022/01/03 15:08:55;;;;;;;5.65;2.87;;;;;;;11.06;68.94;99503.47;2960150;80;21373;-69
2022/01/03 15:12:56;;;;;;;5.55;1.85;;;;;;;10.96;68.83;99502.19;2960905;80;20995;-69
2022/01/03 15:16:58;;;;;;;4.78;2.35;;;;;;;10.83;68.95;99507.03;2960975;80;21054;-68
2022/01/03 15:21:00;;;;;;;8.63;2.90;;;;;;;10.71;69.15;99507.20;2957342;80;21043;-67
2022/01/03 15:25:02;;;;;;;6.60;3.02;;;;;;;10.56;69.20;99508.17;2957831;80;21033;-69
2022/01/03 15:29:05;;;;;;;3.92;2.60;;;;;;;10.45;69.29;99508.34;2955301;80;21047;-69
2022/01/03 15:33:06;;;;;;;6.75;2.80;;;;;;;10.33;69.31;99512.13;2948410;80;20965;-69
2022/01/03 15:37:08;;;;;;;7.37;3.05;;;;;;;10.20;69.87;99520.38;2952743;80;20991;-71
2022/01/03 15:41:10;;;;;;;10.10;3.02;;;;;;;10.08;70.33;99519.23;2955984;80;20964;-73
2022/01/03 15:45:11;;;;;;;3.65;2.50;;;;;;;9.96;70.37;99521.20;2956079;80;20991;-73
2022/01/03 15:49:13;;;;;;;7.85;3.20;;;;;;;9.85;70.87;99517.34;2955845;80;20995;-73
2022/01/03 15:53:15;;;;;;;9.15;2.47;;;;;;;9.77;71.52;99516.71;2955772;79;20991;-74
2022/01/03 15:57:17;;;;;;;5.62;2.37;;;;;;;9.70;72.01;99491.70;2953443;80;21031;-73
2022/01/03 16:01:18;;;;;;;4.17;2.08;;;;;;;9.78;73.59;99506.94;2953135;80;21004;-74
2022/01/03 16:05:20;;;;;;;3.80;2.30;;;;;;;9.74;75.57;99509.53;2954565;80;21638;-73
2022/01/03 16:09:22;;;;;;;7.65;3.20;;;;;;;9.76;76.31;99511.05;2954271;80;21429;-74
2022/01/03 16:13:25;;;;;;;8.13;2.83;;;;;;;9.66;77.17;99511.05;2940819;80;20983;-72
2022/01/03 16:17:27;;;;;;;7.83;2.40;;;;;;;9.53;77.28;99511.32;2954155;80;20995;-71
2022/01/03 16:21:28;;;;;;;12.55;2.60;;;;;;;9.45;78.04;99498.39;2955173;80;20956;-70
2022/01/03 16:25:30;;;;;;;5.50;2.10;;;;;;;9.41;78.56;99505.78;2954672;80;21011;-72
2022/01/03 16:29:32;;;;;;;7.17;2.80;;;;;;;9.33;79.05;99514.92;2958758;80;20991;-71
2022/01/03 16:33:34;;;;;;;4.67;2.52;;;;;;;9.30;79.13;99514.70;2961101;80;21063;-71
2022/01/03 16:37:36;;;;;;;3.95;2.35;;;;;;;9.23;79.10;99514.41;2945938;80;20971;-71
2022/01/03 16:41:38;;;;;;;5.55;2.75;;;;;;;9.12;79.25;99507.89;2958802;80;20983;-71
2022/01/03 16:45:41;;;;;;;6.37;2.12;;;;;;;9.08;79.38;99502.52;2959547;80;21070;-71
2022/01/03 16:49:43;;;;;;;7.50;2.85;;;;;;;9.07;79.29;99500.34;2961162;80;21046;-71
2022/01/03 16:53:44;;;;;;;9.85;5.22;;;;;;;9.06;79.31;99495.19;2960576;80;21007;-71
2022/01/03 16:57:46;;;;;;;10.55;5.95;;;;;;;9.03;79.39;99485.67;2959627;80;21074;-72
2022/01/03 17:01:48;;;;;;;16.62;5.28;;;;;;;9.00;79.06;99484.12;2959902;80;20999;-71
2022/01/03 17:05:49;;;;;;;8.83;5.67;;;;;;;8.95;79.39;99481.03;2960701;80;20979;-74
2022/01/03 17:09:51;;;;;;;8.05;4.95;;;;;;;8.94;79.86;99478.03;2960081;80;21022;-73
2022/01/03 17:13:53;;;;;;;8.93;4.70;;;;;;;8.98;80.42;99474.13;2960836;80;21086;-73
2022/01/03 17:17:55;;;;;;;4.87;2.75;;;;;;;9.10;80.39;99468.22;2960501;80;21007;-70
2022/01/03 17:21:56;;;;;;;8.68;3.90;;;;;;;9.24;79.36;99468.34;2961058;80;21007;-75
2022/01/03 17:25:58;;;;;;;7.58;3.75;;;;;;;9.43;77.77;99464.00;2961144;80;21015;-72
2022/01/03 17:30:03;;;;;;;4.75;2.92;;;;;;;9.60;76.34;99453.20;2957768;80;21058;-72
2022/01/03 17:34:05;;;;;;;5.63;2.73;;;;;;;9.71;75.43;99453.03;2956535;80;20960;-73
2022/01/03 17:38:07;;;;;;;6.90;3.85;;;;;;;9.78;75.58;99451.98;2955818;80;21123;-70
2022/01/03 17:42:09;;;;;;;10.78;3.90;;;;;;;9.85;75.69;99453.59;2956193;80;20964;-70
2022/01/03 17:46:11;;;;;;;11.73;4.42;;;;;;;9.93;75.57;99451.08;2956460;80;20999;-70
2022/01/03 17:50:13;;;;;;;7.12;4.30;;;;;;;9.96;75.39;99457.44;2956055;80;21062;-69
2022/01/03 17:54:14;;;;;;;14.70;4.58;;;;;;;9.93;76.04;99459.53;2956226;80;21050;-69
2022/01/03 17:58:17;;;;;;;10.05;5.35;;;;;;;9.90;77.14;99456.66;2955446;80;21011;-73
2022/01/03 18:02:19;;;;;;;5.60;4.12;;;;;;;9.90;77.18;99446.03;2955862;80;21039;-72
2022/01/03 18:06:21;;;;;;;16.40;6.25;;;;;;;9.82;77.22;99447.23;2956539;80;20999;-72
2022/01/03 18:10:23;;;;;;;5.08;3.37;;;;;;;9.71;77.12;99446.91;2956219;80;20944;-73
2022/01/03 18:14:25;;;;;;;14.68;8.30;;;;;;;9.60;77.68;99449.69;2902819;80;21038;-74
2022/01/03 18:18:27;;;;;;;25.97;12.70;;;;;;;9.57;77.90;99439.70;2903289;82;21535;-71
2022/01/03 18:22:28;;;;;;;22.00;10.93;;;;;;;9.57;77.84;99434.39;2904103;82;21073;-72
2022/01/03 18:26:30;;;;;;;22.40;10.50;;;;;;;9.56;77.30;99434.55;2904502;82;21019;-73
2022/01/03 18:30:31;;;;;;;29.77;13.18;;;;;;;9.48;77.46;99424.63;2907091;80;21026;-71
2022/01/03 18:34:33;;;;;;;26.93;12.15;;;;;;;9.45;78.07;99421.41;2909477;82;21015;-71
2022/01/03 18:38:35;;;;;;;16.40;9.95;;;;;;;9.45;78.73;99428.05;2932408;80;21102;-71
2022/01/03 18:42:37;;;;;;;10.50;7.20;;;;;;;9.45;79.10;99420.08;2955032;80;21023;-72
2022/01/03 18:46:40;;;;;;;15.98;7.62;;;;;;;9.44;79.52;99423.23;2957820;80;21007;-72
2022/01/03 18:50:42;;;;;;;17.20;8.93;;;;;;;9.46;79.57;99410.66;2954459;79;21044;-72
2022/01/03 18:54:44;;;;;;;26.82;9.80;;;;;;;9.49;79.12;99409.05;2962932;79;21010;-71
2022/01/03 18:58:45;;;;;;;12.80;8.00;;;;;;;9.47;78.99;99410.16;2958610;80;21658;-72
2022/01/03 19:02:47;;;;;;;21.17;10.25;;;;;;;9.45;78.83;99399.69;2958209;80;21505;-72
2022/01/03 19:06:49;;;;;;;14.07;8.83;;;;;;;9.43;78.67;99394.98;2958360;80;21026;-72
2022/01/03 19:10:52;;;;;;;17.57;8.03;;;;;;;9.40;79.08;99395.27;2953968;80;21066;-78
2022/01/03 19:14:53;;;;;;;13.62;9.15;;;;;;;9.38;79.32;99391.92;2907969;81;20991;-77
2022/01/03 19:18:55;;;;;;;9.70;6.55;;;;;;;9.39;79.60;99389.14;2908881;82;20975;-71
2022/01/03 19:22:57;;;;;;;15.45;8.30;;;;;;;9.33;79.62;99386.20;2909271;82;21073;-70
2022/01/03 19:26:58;;;;;;;13.93;6.78;;;;;;;9.36;79.25;99381.47;2909349;82;20995;-70
2022/01/03 19:31:03;;;;;;;6.20;4.67;;;;;;;9.37;79.25;99376.98;2905559;82;21015;-70
2022/01/03 19:39:20;;;;;;;8.88;3.85;;;;;;;9.38;79.50;99379.98;2905016;82;21066;-71
2022/01/03 19:43:22;;;;;;;9.33;4.80;;;;;;;9.43;79.17;99372.42;2927277;81;21059;-70
2022/01/03 19:47:24;;;;;;;7.33;4.25;;;;;;;9.46;78.45;99365.53;2915273;81;21068;-71
2022/01/03 19:51:26;;;;;;;15.05;6.30;;;;;;;9.43;78.20;99356.50;2915251;81;20992;-70
2022/01/03 19:55:28;;;;;;;10.93;7.15;;;;;;;9.38;77.85;99348.98;2915195;81;20984;-69